London, Minnesota
Current Conditions -  °F | °C
As of 7:15 AM on Thursday 23 Oct 2014 (Local Time) from KAEL Reporting Station
Drizzle Drizzle  
Wind Chill: 46°   Ceiling: 600
Heat Index: 48°   Visibility: 5mi
Dew Point: 48°   Wind: 6mph
Humidity: 100%   Direction: 170°S
Pressure: 30"   Gusts: NA
Location:  43.5439°N, 93.1707°W
Report Text: KAEL 231215Z AUTO 17005KT 5SM -DZ BKN006 OVC012 09/09 A3000 RMK AO2
Loading
Personal Weather Stations






























Interactive Weather Map New forecast layout! Learn more

10-Day Weather Forecast

Advertisements
Track Severe Weather on mobile